Time;durP1;ratioP1;P1;durP2;ratioP2;P2;SDS_P1;SDS_P2;PMS_P1;PMS_P2;Temp;Humidity;BMP_temperature;BMP_pressure;BME280_temperature;BME280_humidity;BME280_pressure;Samples;Min_cycle;Max_cycle;Signal;HPM_P1;HPM_P2
2022/01/06 00:00:17;;;;;;;7.13;2.42;;;;;;;;;;5234140;28;20074;-87
2022/01/06 00:03:01;;;;;;;5.82;2.70;;;3.20;96.00;;;;;;5225348;28;20604;-89
2022/01/06 00:05:41;;;;;;;6.07;2.45;;;;;;;;;;5240746;28;20048;-87
2022/01/06 00:08:13;;;;;;;7.65;2.38;;;3.60;96.20;;;;;;5236173;28;20048;-87
2022/01/06 00:10:50;;;;;;;12.23;2.90;;;3.10;95.10;;;;;;5216267;28;20067;-92
2022/01/06 00:13:35;;;;;;;7.05;2.20;;;;;;;;;;5217732;28;20058;-87
2022/01/06 00:16:28;;;;;;;8.02;2.55;;;;;;;;;;5268035;28;20044;-88
2022/01/06 00:24:31;;;;;;;6.57;2.95;;;;;;;;;;5245356;28;20070;-87
2022/01/06 00:27:06;;;;;;;5.10;2.08;;;;;;;;;;5230045;28;20047;-87
2022/01/06 00:29:39;;;;;;;7.60;2.50;;;;;;;;;;5269039;28;20044;-86
2022/01/06 00:32:12;;;;;;;9.68;2.50;;;3.80;96.10;;;;;;5241245;28;20044;-86
2022/01/06 00:34:50;;;;;;;7.15;2.53;;;;;;;;;;5238059;28;20043;-87
2022/01/06 00:37:27;;;;;;;11.85;2.60;;;;;;;;;;5241573;28;20609;-87
2022/01/06 00:39:59;;;;;;;;;;;3.00;96.70;;;;;;5246986;28;20039;-87
2022/01/06 00:42:32;;;;;;;8.07;2.40;;;;;;;;;;5222327;28;19923;-86
2022/01/06 00:45:05;;;;;;;5.00;2.58;;;;;;;;;;5251386;28;20048;-89
2022/01/06 00:47:39;;;;;;;6.65;2.42;;;2.90;96.70;;;;;;5224258;28;20048;-88
2022/01/06 00:50:12;;;;;;;;;;;3.00;96.70;;;;;;5248034;28;20048;-87
2022/01/06 00:52:45;;;;;;;4.93;2.80;;;;;;;;;;5229811;28;19928;-87
2022/01/06 00:55:22;;;;;;;17.60;4.18;;;6.30;99.00;;;;;;5216174;28;20055;-87
2022/01/06 00:57:55;;;;;;;9.25;2.80;;;;;;;;;;5237856;28;20048;-87
2022/01/06 01:00:38;;;;;;;5.28;2.53;;;3.00;97.50;;;;;;5210844;28;20052;-87
2022/01/06 01:03:20;;;;;;;3.67;2.28;;;3.00;97.10;;;;;;5234767;28;20058;-87
2022/01/06 01:05:55;;;;;;;8.20;2.58;;;3.00;98.00;;;;;;5205549;28;20051;-88
2022/01/06 01:08:31;;;;;;;9.10;2.40;;;;;;;;;;5232875;28;20047;-87
2022/01/06 01:11:04;;;;;;;6.50;3.05;;;;;;;;;;5229776;28;20048;-88
2022/01/06 01:13:53;;;;;;;6.70;2.58;;;;;;;;;;5231378;28;20040;-86
2022/01/06 01:16:32;;;;;;;12.15;2.40;;;3.00;97.80;;;;;;5233888;28;20055;-88
2022/01/06 01:19:10;;;;;;;7.88;2.53;;;;;;;;;;5234562;28;20056;-88
2022/01/06 01:21:44;;;;;;;16.80;2.90;;;;;;;;;;5233503;28;20063;-87
2022/01/06 01:24:18;;;;;;;6.50;3.30;;;;;;;;;;5217550;28;20059;-88
2022/01/06 01:26:54;;;;;;;9.77;2.63;;;;;;;;;;5197955;28;20047;-88
2022/01/06 01:29:30;;;;;;;5.30;2.67;;;;;;;;;;5217503;28;20040;-87
2022/01/06 01:32:03;;;;;;;10.63;3.45;;;;;;;;;;5232059;28;20841;-87
2022/01/06 01:34:40;;;;;;;6.40;2.70;;;;;;;;;;5212103;28;20051;-87
2022/01/06 01:37:13;;;;;;;6.32;2.83;;;;;;;;;;5215005;28;20048;-87
2022/01/06 01:39:52;;;;;;;9.23;2.88;;;;;;;;;;5218315;28;20637;-86
2022/01/06 01:42:26;;;;;;;9.80;2.78;;;2.90;99.90;;;;;;5227853;28;20040;-88
2022/01/06 01:45:01;;;;;;;6.82;2.30;;;;;;;;;;5228813;28;20052;-87
2022/01/06 01:47:41;;;;;;;7.18;2.50;;;2.90;99.90;;;;;;5231224;28;20460;-86
2022/01/06 01:50:17;;;;;;;8.55;2.45;;;2.80;99.90;;;;;;5261420;28;20040;-86
2022/01/06 01:52:54;;;;;;;8.05;2.85;;;2.90;99.90;;;;;;5238843;28;20040;-85
2022/01/06 01:55:30;;;;;;;9.52;2.80;;;2.90;99.90;;;;;;5229818;28;20044;-86
2022/01/06 01:58:03;;;;;;;11.50;3.78;;;;;;;;;;5225527;28;20063;-87
2022/01/06 02:00:38;;;;;;;5.80;2.50;;;;;;;;;;5217385;28;20494;-86
2022/01/06 02:03:12;;;;;;;5.28;2.47;;;;;;;;;;5239641;28;20048;-88
2022/01/06 02:05:45;;;;;;;15.95;3.13;;;;;;;;;;5241918;28;20044;-86
2022/01/06 02:08:18;;;;;;;7.40;2.85;;;;;;;;;;5222851;28;20554;-87
2022/01/06 02:10:51;;;;;;;12.32;2.40;;;;;;;;;;5222944;28;20048;-86
2022/01/06 02:13:28;;;;;;;7.82;2.42;;;;;;;;;;5241795;28;20040;-86
2022/01/06 02:16:02;;;;;;;7.65;2.63;;;;;;;;;;5255872;28;20047;-87
2022/01/06 02:18:35;;;;;;;10.90;2.83;;;;;;;;;;5248208;28;20534;-87
2022/01/06 02:21:09;;;;;;;8.35;2.53;;;;;;;;;;5246725;28;20040;-87
2022/01/06 02:23:42;;;;;;;6.03;2.20;;;;;;;;;;5212849;28;20048;-88
2022/01/06 02:26:18;;;;;;;6.43;3.03;;;;;;;;;;5253087;28;20056;-88
2022/01/06 02:28:53;;;;;;;8.27;2.50;;;;;;;;;;5221005;28;20047;-88
2022/01/06 02:31:27;;;;;;;7.18;2.45;;;;;;;;;;5255021;28;21076;-87
2022/01/06 02:34:00;;;;;;;6.93;2.72;;;;;;;;;;5235571;28;20047;-86
2022/01/06 02:36:33;;;;;;;8.20;2.70;;;;;;;;;;5230896;28;20063;-87
2022/01/06 02:39:07;;;;;;;7.20;2.20;;;;;;;;;;5233362;28;20290;-87
2022/01/06 02:41:39;;;;;;;;;;;2.90;99.90;;;;;;5255265;28;20055;-86
2022/01/06 02:44:12;;;;;;;7.80;2.53;;;;;;;;;;5235760;28;19924;-86
2022/01/06 02:46:45;;;;;;;6.32;2.60;;;;;;;;;;5236902;27;20059;-88
2022/01/06 02:49:18;;;;;;;9.20;2.50;;;;;;;;;;5216633;28;20054;-86
2022/01/06 02:51:51;;;;;;;5.03;2.03;;;;;;;;;;5249962;28;20066;-88
2022/01/06 02:54:25;;;;;;;7.20;2.87;;;2.90;99.90;;;;;;5259951;28;20515;-87
2022/01/06 02:56:58;;;;;;;9.52;2.25;;;;;;;;;;5237851;28;20310;-86
2022/01/06 02:59:31;;;;;;;10.43;2.47;;;;;;;;;;5243216;27;20078;-87
2022/01/06 03:02:08;;;;;;;7.70;2.67;;;2.90;99.90;;;;;;5246275;28;20063;-87
2022/01/06 03:04:44;;;;;;;8.65;2.40;;;;;;;;;;5242012;28;20055;-86
2022/01/06 03:07:17;;;;;;;7.07;2.53;;;;;;;;;;5250525;28;20043;-86
2022/01/06 03:09:54;;;;;;;7.80;2.53;;;;;;;;;;5221749;28;20399;-86
2022/01/06 03:12:34;;;;;;;8.57;2.17;;;;;;;;;;5239995;28;20048;-87
2022/01/06 03:15:07;;;;;;;4.88;2.67;;;;;;;;;;5243411;28;20044;-86
2022/01/06 03:17:44;;;;;;;6.78;2.78;;;2.90;99.90;;;;;;5238670;28;20059;-87
2022/01/06 03:20:21;;;;;;;6.35;2.40;;;;;;;;;;5231646;28;20056;-86
2022/01/06 03:22:54;;;;;;;;;;;2.90;99.90;;;;;;5222888;28;20052;-86
2022/01/06 03:25:27;;;;;;;5.32;2.30;;;;;;;;;;5222933;28;19927;-86
2022/01/06 03:28:02;;;;;;;3.75;2.10;;;;;;;;;;5249134;28;20517;-86
2022/01/06 03:30:35;;;;;;;8.15;2.72;;;;;;;;;;5237027;28;20078;-87
2022/01/06 03:33:08;;;;;;;5.78;2.08;;;;;;;;;;5263570;28;20407;-86
2022/01/06 03:35:41;;;;;;;11.98;4.85;;;;;;;;;;5257469;28;20044;-86
2022/01/06 03:38:17;;;;;;;5.45;2.53;;;;;;;;;;5266173;28;20077;-87
2022/01/06 03:40:50;;;;;;;7.05;2.40;;;;;;;;;;5258516;28;20048;-87
2022/01/06 03:43:25;;;;;;;6.07;2.63;;;2.90;99.90;;;;;;5256076;28;20043;-88
2022/01/06 03:45:58;;;;;;;7.35;2.35;;;;;;;;;;5249058;28;20044;-88
2022/01/06 03:48:32;;;;;;;4.65;2.92;;;;;;;;;;5241014;28;20738;-87
2022/01/06 03:51:05;;;;;;;5.68;2.25;;;;;;;;;;5240499;28;20388;-87
2022/01/06 03:53:38;;;;;;;8.38;2.67;;;;;;;;;;5238454;27;20056;-87
2022/01/06 03:56:13;;;;;;;4.75;2.30;;;;;;;;;;5225171;28;20504;-86
2022/01/06 03:58:49;;;;;;;5.90;2.78;;;;;;;;;;5240193;28;20062;-86
2022/01/06 04:01:27;;;;;;;7.35;2.83;;;;;;;;;;5249874;28;20052;-88
2022/01/06 04:04:01;;;;;;;9.10;1.92;;;;;;;;;;5246636;28;20048;-87
2022/01/06 04:06:39;;;;;;;10.02;3.20;;;;;;;;;;5223917;28;20494;-88
2022/01/06 04:09:12;;;;;;;4.85;2.20;;;;;;;;;;5239480;28;20043;-87
2022/01/06 04:11:45;;;;;;;7.95;2.55;;;;;;;;;;5227372;28;21032;-88
2022/01/06 04:14:18;;;;;;;6.82;2.50;;;;;;;;;;5231279;28;20055;-87
2022/01/06 04:16:58;;;;;;;7.90;2.22;;;;;;;;;;5258796;28;20059;-86
2022/01/06 04:19:31;;;;;;;7.47;2.63;;;;;;;;;;5241440;28;20048;-86
2022/01/06 04:22:05;;;;;;;10.18;2.42;;;3.00;99.90;;;;;;5245588;28;21526;-86
2022/01/06 04:24:38;;;;;;;;;;;2.90;99.90;;;;;;5249203;28;20439;-87
2022/01/06 04:27:11;;;;;;;6.25;2.30;;;;;;;;;;5251712;28;19938;-86
2022/01/06 04:29:44;;;;;;;7.33;2.70;;;;;;;;;;5212495;28;20395;-88
2022/01/06 04:32:21;;;;;;;5.47;2.15;;;;;;;;;;5216722;28;20411;-86
2022/01/06 04:35:01;;;;;;;7.25;2.67;;;2.90;99.90;;;;;;5246619;28;20047;-86
2022/01/06 04:37:37;;;;;;;7.00;2.28;;;;;;;;;;5236360;28;20048;-86
2022/01/06 04:40:16;;;;;;;7.70;2.25;;;2.90;99.90;;;;;;5244995;28;20052;-85
2022/01/06 04:42:50;;;;;;;7.18;2.50;;;;;;;;;;5233034;28;20074;-86
2022/01/06 04:45:23;;;;;;;8.48;3.80;;;;;;;;;;5236170;28;21760;-86
2022/01/06 04:47:58;;;;;;;8.80;2.63;;;;;;;;;;5264885;28;20044;-87
2022/01/06 04:50:33;;;;;;;6.75;2.35;;;;;;;;;;5235539;28;20048;-88
2022/01/06 04:53:06;;;;;;;5.87;2.63;;;;;;;;;;5235275;28;20044;-87
2022/01/06 04:55:44;;;;;;;9.65;2.80;;;;;;;;;;5216708;28;20044;-86
2022/01/06 04:58:17;;;;;;;4.85;2.72;;;;;;;;;;5235787;28;20047;-87
2022/01/06 05:00:50;;;;;;;10.77;3.07;;;;;;;;;;5219874;28;20048;-86
2022/01/06 05:03:23;;;;;;;8.55;2.75;;;;;;;;;;5262375;28;20910;-86
2022/01/06 05:05:59;;;;;;;5.25;2.58;;;;;;;;;;5247898;28;20059;-85
2022/01/06 05:08:32;;;;;;;5.05;2.15;;;;;;;;;;5229735;28;20043;-86
2022/01/06 05:11:05;;;;;;;4.15;2.58;;;;;;;;;;5248260;28;20051;-86
2022/01/06 05:13:38;;;;;;;6.17;2.67;;;;;;;;;;5230989;28;20111;-86
2022/01/06 05:16:13;;;;;;;6.78;3.38;;;2.80;99.90;;;;;;5236622;28;20665;-85
2022/01/06 05:18:47;;;;;;;5.55;2.85;;;;;;;;;;5264324;28;20158;-86
2022/01/06 05:21:20;;;;;;;6.82;3.30;;;;;;;;;;5231303;28;20066;-86
2022/01/06 05:23:53;;;;;;;4.67;2.67;;;;;;;;;;5247904;28;20148;-87
2022/01/06 05:26:26;;;;;;;7.43;2.87;;;;;;;;;;5219599;28;20677;-87
2022/01/06 05:28:59;;;;;;;5.90;3.53;;;;;;;;;;5241339;28;20541;-87
2022/01/06 05:31:32;;;;;;;10.23;3.25;;;;;;;;;;5257639;27;20055;-87
2022/01/06 05:34:05;;;;;;;8.15;2.92;;;;;;;;;;5250478;28;20609;-86
2022/01/06 05:36:42;;;;;;;6.57;2.80;;;;;;;;;;5228244;28;20051;-87
2022/01/06 05:39:15;;;;;;;11.23;2.63;;;;;;;;;;5213465;28;20059;-85
2022/01/06 05:41:48;;;;;;;7.13;2.85;;;;;;;;;;5227025;28;20048;-87
2022/01/06 05:44:21;;;;;;;4.65;3.03;;;;;;;;;;5254998;28;20047;-86
2022/01/06 05:46:54;;;;;;;6.17;2.80;;;;;;;;;;5218193;28;20059;-87
2022/01/06 05:49:29;;;;;;;4.47;2.88;;;;;;;;;;5253599;28;20040;-88
2022/01/06 05:52:02;;;;;;;7.07;2.70;;;;;;;;;;5244700;28;20043;-86
2022/01/06 05:54:39;;;;;;;4.63;2.50;;;;;;;;;;5231207;28;20293;-88
2022/01/06 05:57:15;;;;;;;4.72;2.47;;;;;;;;;;5254319;28;20301;-87
2022/01/06 05:59:48;;;;;;;;;;;2.60;99.90;;;;;;5239206;28;20048;-87
2022/01/06 06:02:21;;;;;;;5.32;2.70;;;;;;;;;;5254799;28;19930;-87
2022/01/06 06:04:55;;;;;;;5.13;2.50;;;;;;;;;;5241562;28;20052;-86
2022/01/06 06:07:28;;;;;;;4.72;2.72;;;;;;;;;;5245265;28;20071;-88
2022/01/06 06:10:04;;;;;;;8.02;2.78;;;;;;;;;;5241739;28;20043;-88
2022/01/06 06:12:39;;;;;;;6.60;2.90;;;;;;;;;;5250555;28;20047;-87
2022/01/06 06:15:17;;;;;;;10.13;3.30;;;;;;;;;;5220462;28;20067;-87
2022/01/06 06:17:50;;;;;;;4.78;2.80;;;;;;;;;;5270270;28;20054;-87
2022/01/06 06:20:23;;;;;;;7.30;2.53;;;;;;;;;;5268674;28;20042;-88
2022/01/06 06:22:56;;;;;;;7.80;2.80;;;2.70;99.90;;;;;;5255089;28;20048;-87
2022/01/06 06:25:29;;;;;;;8.02;2.25;;;;;;;;;;5249753;28;20059;-87
2022/01/06 06:28:02;;;;;;;5.90;2.88;;;;;;;;;;5231966;28;20052;-87
2022/01/06 06:30:35;;;;;;;13.35;2.88;;;;;;;;;;5256198;28;20052;-88
2022/01/06 06:33:08;;;;;;;5.87;3.10;;;;;;;;;;5244040;28;20052;-87
2022/01/06 06:35:41;;;;;;;11.03;3.20;;;;;;;;;;5247118;28;20043;-90
2022/01/06 06:38:14;;;;;;;4.95;2.40;;;;;;;;;;5248572;28;20055;-87
2022/01/06 06:40:47;;;;;;;8.07;2.70;;;;;;;;;;5228063;28;20051;-86
2022/01/06 06:43:20;;;;;;;7.93;2.00;;;;;;;;;;5259517;28;20059;-86
2022/01/06 06:45:53;;;;;;;5.85;2.60;;;;;;;;;;5225184;28;20048;-85
2022/01/06 06:48:26;;;;;;;6.05;2.78;;;;;;;;;;5227858;28;20435;-86
2022/01/06 06:51:01;;;;;;;5.25;3.28;;;;;;;;;;5256544;28;20521;-85
2022/01/06 06:53:34;;;;;;;5.15;2.58;;;;;;;;;;5269405;28;20055;-86
2022/01/06 06:56:07;;;;;;;3.40;2.50;;;;;;;;;;5235126;28;20039;-88
2022/01/06 06:58:40;;;;;;;3.95;2.30;;;;;;;;;;5257999;28;20055;-86
2022/01/06 07:01:13;;;;;;;5.40;1.90;;;;;;;;;;5258461;28;20044;-86
2022/01/06 07:03:46;;;;;;;5.40;2.28;;;;;;;;;;5265537;28;20044;-88
2022/01/06 07:06:19;;;;;;;8.02;2.47;;;;;;;;;;5289203;28;20036;-87
2022/01/06 07:08:52;;;;;;;3.80;2.08;;;;;;;;;;5286743;28;20047;-87
2022/01/06 07:11:24;;;;;;;6.63;2.10;;;;;;;;;;5259605;28;20034;-87
2022/01/06 07:13:57;;;;;;;4.50;2.30;;;;;;;;;;5283002;28;20312;-86
2022/01/06 07:16:30;;;;;;;4.40;2.27;;;;;;;;;;5280564;28;20035;-87
2022/01/06 07:19:03;;;;;;;3.37;2.33;;;;;;;;;;5266046;28;20036;-87
2022/01/06 07:21:36;;;;;;;3.77;2.40;;;;;;;;;;5295570;28;20036;-86
2022/01/06 07:24:09;;;;;;;5.53;2.60;;;;;;;;;;5276405;28;20059;-88
2022/01/06 07:26:42;;;;;;;4.35;2.15;;;;;;;;;;5239342;28;20055;-86
2022/01/06 07:29:16;;;;;;;7.17;2.07;;;;;;;;;;5258156;28;20785;-86
2022/01/06 07:31:49;;;;;;;4.45;2.53;;;;;;;;;;5235817;28;20047;-87
2022/01/06 07:34:24;;;;;;;5.18;2.47;;;;;;;;;;5247617;28;20042;-86
2022/01/06 07:36:59;;;;;;;7.72;2.70;;;;;;;;;;5244289;28;20048;-88
2022/01/06 07:39:32;;;;;;;5.93;2.50;;;;;;;;;;5254340;28;20059;-87
2022/01/06 07:42:08;;;;;;;4.97;2.42;;;;;;;;;;5252042;28;20513;-89
2022/01/06 07:44:46;;;;;;;4.47;2.47;;;;;;;;;;5225536;28;20062;-89
2022/01/06 07:47:20;;;;;;;8.70;2.30;;;;;;;;;;5251768;28;20048;-90
2022/01/06 07:49:58;;;;;;;;;;;2.40;99.90;;;;;;5235191;28;20474;-89
2022/01/06 07:52:31;;;;;;;4.80;2.17;;;;;;;;;;5237727;28;19939;-89
2022/01/06 07:55:05;;;;;;;4.75;2.80;;;;;;;;;;5217583;28;20047;-89
2022/01/06 07:57:49;;;;;;;4.13;2.40;;;;;;;;;;5213564;28;20044;-88
2022/01/06 08:00:35;;;;;;;5.13;2.97;;;;;;;;;;5239980;28;20776;-89
2022/01/06 08:03:12;;;;;;;7.95;2.88;;;;;;;;;;5237833;28;20051;-89
2022/01/06 08:05:58;;;;;;;7.30;2.55;;;2.40;99.90;;;;;;5216106;28;20052;-89
2022/01/06 08:08:53;;;;;;;4.15;2.22;;;;;;;;;;5221145;28;20046;-88
2022/01/06 08:11:34;;;;;;;8.27;3.30;;;;;;;;;;5232922;28;20783;-90
2022/01/06 08:14:23;;;;;;;5.38;2.90;;;;;;;;;;5220069;28;20040;-88
2022/01/06 08:17:18;;;;;;;5.70;2.97;;;;;;;;;;5232815;28;20452;-89
2022/01/06 08:19:59;;;;;;;8.98;2.63;;;;;;;;;;5218813;28;20056;-90
2022/01/06 08:22:53;;;;;;;6.05;2.55;;;;;;;;;;5221039;28;20579;-90
2022/01/06 08:25:34;;;;;;;5.90;2.67;;;;;;;;;;5211109;28;20048;-88
2022/01/06 08:29:03;;;;;;;5.50;3.47;;;;;;;;;;5233553;28;20052;-87
2022/01/06 08:32:07;;;;;;;6.95;2.97;;;;;;;;;;5214023;28;20051;-89
2022/01/06 08:35:28;;;;;;;4.95;2.78;;;;;;;;;;5252315;28;20042;-90
2022/01/06 08:38:06;;;;;;;3.50;2.33;;;;;;;;;;5236023;28;20051;-89
2022/01/06 08:40:52;;;;;;;5.65;2.67;;;;;;;;;;5226045;27;20454;-90
2022/01/06 08:46:58;;;;;;;4.83;2.60;;;;;;;;;;5235057;28;20633;-90
2022/01/06 08:50:08;;;;;;;3.28;2.38;;;2.60;99.90;;;;;;5229829;28;20305;-89
2022/01/06 08:56:14;;;;;;;6.68;3.05;;;;;;;;;;5240262;28;20043;-90
2022/01/06 08:59:04;;;;;;;5.70;3.13;;;;;;;;;;5220838;28;20692;-90
2022/01/06 09:01:45;;;;;;;4.45;3.13;;;;;;;;;;5241956;28;20052;-87
2022/01/06 09:04:21;;;;;;;6.97;3.85;;;;;;;;;;5205547;28;20054;-89
2022/01/06 09:06:58;;;;;;;5.90;3.83;;;;;;;;;;5213254;28;20052;-90
2022/01/06 09:09:42;;;;;;;8.20;3.55;;;;;;;;;;5223897;28;20047;-89
2022/01/06 09:12:26;;;;;;;6.05;3.30;;;2.80;99.90;;;;;;5233387;28;20055;-89
2022/01/06 09:15:09;;;;;;;6.60;3.30;;;;;;;;;;5215614;28;20052;-90
2022/01/06 09:17:42;;;;;;;8.63;2.90;;;;;;;;;;5217477;28;20652;-89
2022/01/06 09:20:18;;;;;;;6.43;3.17;;;;;;;;;;5231528;28;21379;-88
2022/01/06 09:23:08;;;;;;;5.07;2.60;;;;;;;;;;5221907;28;20059;-89
2022/01/06 09:26:34;;;;;;;6.68;3.63;;;;;;;;;;5231392;28;20047;-89
2022/01/06 09:29:08;;;;;;;9.55;3.80;;;2.70;99.90;;;;;;5231986;28;20044;-89
2022/01/06 09:31:42;;;;;;;7.85;3.28;;;2.90;99.90;;;;;;5241424;28;20581;-89
2022/01/06 09:34:24;;;;;;;5.68;3.50;;;;;;;;;;5227969;28;20055;-87
2022/01/06 09:37:00;;;;;;;5.03;2.58;;;;;;;;;;5227379;28;21224;-88
2022/01/06 09:39:37;;;;;;;11.38;3.47;;;;;;;;;;5255243;28;20043;-89
2022/01/06 09:42:18;;;;;;;8.95;3.20;;;3.40;99.90;;;;;;5223584;28;20058;-87
2022/01/06 09:45:07;;;;;;;6.10;3.10;;;;;;;;;;5234041;28;20052;-90
2022/01/06 09:47:52;;;;;;;8.80;3.80;;;3.40;99.90;;;;;;5237658;28;20063;-88
2022/01/06 09:50:27;;;;;;;8.70;3.72;;;;;;;;;;5225087;28;20048;-86
2022/01/06 09:53:00;;;;;;;7.50;3.50;;;;;;;;;;5248293;28;20054;-86
2022/01/06 09:55:36;;;;;;;8.02;3.03;;;;;;;;;;5208357;28;20062;-86
2022/01/06 09:58:11;;;;;;;4.45;2.92;;;;;;;;;;5223674;28;20070;-87
2022/01/06 10:01:05;;;;;;;6.95;3.90;;;3.30;99.90;;;;;;5211361;28;20047;-89
2022/01/06 10:03:49;;;;;;;4.82;3.83;;;;;;;;;;5208492;28;20048;-87
2022/01/06 10:06:33;;;;;;;7.68;3.83;;;;;;;;;;5229323;28;20051;-86
2022/01/06 10:09:23;;;;;;;8.10;4.15;;;3.20;99.90;;;;;;5244754;28;20043;-86
2022/01/06 10:12:06;;;;;;;7.60;4.13;;;3.20;99.90;;;;;;5237336;28;20044;-86
2022/01/06 10:14:45;;;;;;;9.02;4.78;;;3.20;99.90;;;;;;5237613;28;20062;-86
2022/01/06 10:17:33;;;;;;;8.45;4.10;;;3.30;99.90;;;;;;5215778;28;20051;-86
2022/01/06 10:20:26;;;;;;;6.60;3.35;;;3.40;99.90;;;;;;5218609;28;20052;-85
2022/01/06 10:23:12;;;;;;;;;;;3.50;99.90;;;;;;5258803;28;20403;-86
2022/01/06 10:26:17;;;;;;;8.23;4.50;;;3.50;99.90;;;;;;5222479;28;19928;-84
2022/01/06 10:29:03;;;;;;;7.15;3.67;;;;;;;;;;5244724;28;20044;-86
2022/01/06 10:31:42;;;;;;;12.05;4.20;;;;;;;;;;5255305;28;20597;-86
2022/01/06 10:34:29;;;;;;;7.38;4.03;;;3.30;99.90;;;;;;5227068;28;20040;-86
2022/01/06 10:37:35;;;;;;;7.22;4.50;;;3.30;99.90;;;;;;5227700;28;20044;-86
2022/01/06 10:40:25;;;;;;;7.75;4.32;;;3.10;99.90;;;;;;5216779;28;20052;-87
2022/01/06 10:43:08;;;;;;;7.77;3.90;;;;;;;;;;5224208;28;20066;-87
2022/01/06 10:46:03;;;;;;;6.65;4.00;;;;;;;;;;5225586;28;20050;-87
2022/01/06 10:48:36;;;;;;;6.90;4.18;;;;;;;;;;5244139;28;20087;-87
2022/01/06 10:51:38;;;;;;;6.75;4.28;;;3.10;99.90;;;;;;5235930;28;20477;-87
2022/01/06 10:54:24;;;;;;;7.93;5.03;;;3.10;99.90;;;;;;5241331;28;20044;-87
2022/01/06 10:57:17;;;;;;;;;;;3.10;99.90;;;;;;5232642;28;20441;-88
2022/01/06 11:00:11;;;;;;;8.32;4.15;;;;;;;;;;5228456;28;19931;-86
2022/01/06 11:02:47;;;;;;;11.63;5.43;;;;;;;;;;5239407;28;20044;-87
2022/01/06 11:05:26;;;;;;;8.82;4.78;;;;;;;;;;5216794;28;20686;-87
2022/01/06 11:08:00;;;;;;;;;;;3.20;99.90;;;;;;5233134;28;20833;-86
2022/01/06 11:10:45;;;;;;;8.45;5.22;;;;;;;;;;5239791;28;21141;-86
2022/01/06 11:13:23;;;;;;;9.35;4.03;;;;;;;;;;5231747;27;20036;-86
2022/01/06 11:15:57;;;;;;;5.95;3.65;;;;;;;;;;5230368;28;20051;-86
2022/01/06 11:18:58;;;;;;;11.93;3.83;;;3.10;99.90;;;;;;5228597;28;20059;-87
2022/01/06 11:22:07;;;;;;;9.73;4.32;;;;;;;;;;5233691;28;20060;-87
2022/01/06 11:24:39;;;;;;;7.38;5.25;;;;;;;;;;5238061;28;20449;-86
2022/01/06 11:27:14;;;;;;;6.53;4.65;;;;;;;;;;5224267;28;20058;-88
2022/01/06 11:29:49;;;;;;;13.82;4.80;;;;;;;;;;5238833;28;20052;-88
2022/01/06 11:32:23;;;;;;;9.93;4.35;;;3.20;99.90;;;;;;5240992;28;20048;-86
2022/01/06 11:35:11;;;;;;;10.20;4.57;;;3.20;99.90;;;;;;5235553;27;20044;-86
2022/01/06 11:37:49;;;;;;;10.43;5.30;;;3.10;99.90;;;;;;5230549;28;20863;-84
2022/01/06 11:40:33;;;;;;;8.95;5.05;;;3.00;99.90;;;;;;5208617;28;21353;-85
2022/01/06 11:43:06;;;;;;;;;;;3.00;99.90;;;;;;5244401;27;20082;-85
2022/01/06 11:45:39;;;;;;;9.55;5.10;;;;;;;;;;5206559;28;20227;-85
2022/01/06 11:48:14;;;;;;;9.10;4.90;;;2.90;99.90;;;;;;5242476;28;20052;-85
2022/01/06 11:50:50;;;;;;;13.18;5.70;;;3.00;99.90;;;;;;5220759;28;20066;-84
2022/01/06 11:53:34;;;;;;;9.35;5.43;;;;;;;;;;5213292;28;20570;-85
2022/01/06 11:56:15;;;;;;;10.73;6.22;;;2.90;99.90;;;;;;5214453;28;20051;-85
2022/01/06 11:59:02;;;;;;;11.65;6.68;;;3.00;99.90;;;;;;5211962;28;20051;-86
2022/01/06 12:01:45;;;;;;;9.88;6.15;;;3.00;99.90;;;;;;5209613;28;20511;-84
2022/01/06 12:04:23;;;;;;;11.18;6.50;;;3.00;99.90;;;;;;5214551;28;20052;-86
2022/01/06 12:07:04;;;;;;;15.55;7.63;;;3.00;99.90;;;;;;5214998;28;20051;-85
2022/01/06 12:09:38;;;;;;;12.25;6.53;;;;;;;;;;5232740;27;20051;-86
2022/01/06 12:12:11;;;;;;;9.17;6.87;;;;;;;;;;5205131;28;20105;-86
2022/01/06 12:14:44;;;;;;;9.63;6.90;;;;;;;;;;5205901;28;20851;-85
2022/01/06 12:17:23;;;;;;;11.70;6.53;;;;;;;;;;5242387;28;20306;-85
2022/01/06 12:19:58;;;;;;;12.38;5.28;;;;;;;;;;5234473;28;20052;-86
2022/01/06 12:22:34;;;;;;;11.07;6.68;;;;;;;;;;5203045;28;20059;-85
2022/01/06 12:25:07;;;;;;;9.20;5.55;;;;;;;;;;5230878;28;20040;-87
2022/01/06 12:27:45;;;;;;;15.50;5.72;;;3.20;99.90;;;;;;5218406;28;20499;-85
2022/01/06 12:30:19;;;;;;;12.45;6.72;;;;;;;;;;5210238;28;20051;-85
2022/01/06 12:32:57;;;;;;;11.32;5.53;;;3.10;99.90;;;;;;5222577;28;20048;-84
2022/01/06 12:35:43;;;;;;;13.20;6.85;;;3.20;99.90;;;;;;5265793;27;20058;-85
2022/01/06 12:38:25;;;;;;;17.73;6.90;;;;;;;;;;5246683;28;20043;-83
2022/01/06 12:40:58;;;;;;;13.38;7.38;;;3.20;99.90;;;;;;5264419;28;20036;-84
2022/01/06 12:43:41;;;;;;;17.42;7.95;;;3.20;99.90;;;;;;5284292;28;20024;-84
2022/01/06 12:46:18;;;;;;;43.58;13.75;;;3.20;99.90;;;;;;5266386;28;20048;-82
2022/01/06 12:48:53;;;;;;;23.80;9.38;;;3.20;99.90;;;;;;5280649;27;20062;-82
2022/01/06 12:51:30;;;;;;;27.92;9.93;;;3.20;99.90;;;;;;5285679;28;20039;-83
2022/01/06 12:54:17;;;;;;;14.85;7.30;;;3.40;99.90;;;;;;5269008;28;20044;-83
2022/01/06 12:56:53;;;;;;;15.18;6.57;;;3.40;99.90;;;;;;5265349;27;20385;-84
2022/01/06 12:59:37;;;;;;;13.27;6.15;;;;;;;;;;5274632;28;20028;-84
2022/01/06 13:02:12;;;;;;;13.45;5.88;;;3.40;99.90;;;;;;5261575;28;20047;-83
2022/01/06 13:04:48;;;;;;;9.93;5.50;;;3.40;99.90;;;;;;5250057;28;20048;-84
2022/01/06 13:07:21;;;;;;;13.50;6.57;;;;;;;;;;5242766;28;20558;-84
2022/01/06 13:09:57;;;;;;;14.43;5.47;;;3.40;99.90;;;;;;5253876;28;20517;-84
2022/01/06 13:12:31;;;;;;;13.95;4.95;;;;;;;;;;5240861;27;20470;-83
2022/01/06 13:15:04;;;;;;;12.10;5.82;;;;;;;;;;5256596;28;20047;-84
2022/01/06 13:17:43;;;;;;;13.43;6.07;;;;;;;;;;5236401;28;20051;-83
2022/01/06 13:20:16;;;;;;;10.75;5.30;;;;;;;;;;5221033;28;20051;-83
2022/01/06 13:25:35;;;;;;;10.77;4.75;;;3.60;99.90;;;;;;5252516;28;20917;-84
2022/01/06 13:28:13;;;;;;;14.52;5.22;;;3.70;99.90;;;;;;5220702;28;20047;-84
2022/01/06 13:30:49;;;;;;;12.48;4.95;;;3.70;99.90;;;;;;5224701;28;20052;-83
2022/01/06 13:33:24;;;;;;;9.90;5.03;;;3.70;99.90;;;;;;5219889;28;20056;-84
2022/01/06 13:35:58;;;;;;;15.00;4.88;;;3.70;99.90;;;;;;5222625;28;20044;-84
2022/01/06 13:38:37;;;;;;;11.75;5.20;;;3.60;99.90;;;;;;5222473;28;20055;-84
2022/01/06 13:41:10;;;;;;;10.65;4.60;;;;;;;;;;5220631;28;20059;-86
2022/01/06 13:43:43;;;;;;;8.75;4.53;;;;;;;;;;5245294;28;20091;-84
2022/01/06 13:46:23;;;;;;;9.43;4.55;;;3.60;99.90;;;;;;5242035;28;20426;-84
2022/01/06 13:52:20;;;;;;;8.15;4.25;;;3.60;99.90;;;;;;5235118;28;20054;-83
2022/01/06 13:54:55;;;;;;;11.27;4.18;;;3.70;99.90;;;;;;5256823;28;20043;-84
2022/01/06 13:57:28;;;;;;;9.90;4.70;;;;;;;;;;5258967;28;20044;-82
2022/01/06 14:00:00;;;;;;;11.23;3.93;;;;;;;;;;5243943;28;20048;-85
2022/01/06 14:02:34;;;;;;;9.40;4.70;;;;;;;;;;5259588;28;20055;-84
2022/01/06 14:05:08;;;;;;;8.00;4.15;;;3.70;99.90;;;;;;5200593;28;20048;-83
2022/01/06 14:07:40;;;;;;;;;;;3.60;99.90;;;;;;5261137;28;20996;-84
2022/01/06 14:10:13;;;;;;;19.67;6.93;;;;;;;;;;5241298;28;22877;-83
2022/01/06 14:12:47;;;;;;;19.43;5.30;;;;;;;;;;5227349;28;20047;-84
2022/01/06 14:15:20;;;;;;;14.02;4.90;;;;;;;;;;5256788;28;20298;-83
2022/01/06 14:17:52;;;;;;;9.18;3.85;;;;;;;;;;5229791;28;20062;-84
2022/01/06 14:20:25;;;;;;;13.37;4.77;;;;;;;;;;5264110;28;20050;-85
2022/01/06 14:22:58;;;;;;;9.07;3.97;;;;;;;;;;5211608;28;20054;-83
2022/01/06 14:25:31;;;;;;;9.05;3.95;;;;;;;;;;5234895;28;21349;-84
2022/01/06 14:28:06;;;;;;;10.40;4.10;;;;;;;;;;5239517;28;20040;-83
2022/01/06 14:30:39;;;;;;;11.90;4.22;;;;;;;;;;5223940;28;20052;-84
2022/01/06 14:33:12;;;;;;;13.18;5.85;;;3.50;99.90;;;;;;5244463;27;20058;-83
2022/01/06 14:35:45;;;;;;;8.20;4.32;;;;;;;;;;5215975;28;20139;-84
2022/01/06 14:38:41;;;;;;;9.38;4.00;;;3.60;99.90;;;;;;5204284;28;20059;-84
2022/01/06 14:41:18;;;;;;;8.10;4.10;;;3.60;99.90;;;;;;5221800;28;20048;-84
2022/01/06 14:43:51;;;;;;;14.25;3.63;;;;;;;;;;4864685;28;10000368;-84
2022/01/06 14:46:24;;;;;;;7.45;4.20;;;;;;;;;;4532859;28;10000779;-83
2022/01/06 14:48:58;;;;;;;8.45;4.07;;;;;;;;;;5209166;28;22522;-84
2022/01/06 14:51:33;;;;;;;15.33;4.90;;;;;;;;;;5229730;28;20044;-84
2022/01/06 14:54:06;;;;;;;7.50;3.67;;;;;;;;;;5233847;28;21801;-84
2022/01/06 14:56:39;;;;;;;12.27;4.28;;;;;;;;;;5215000;27;20657;-84
2022/01/06 14:59:11;;;;;;;10.97;4.90;;;;;;;;;;5214495;28;20040;-84
2022/01/06 15:01:45;;;;;;;10.80;5.40;;;3.60;99.90;;;;;;5209500;28;20047;-83
2022/01/06 15:04:18;;;;;;;11.02;5.25;;;;;;;;;;5242488;28;20052;-85
2022/01/06 15:06:51;;;;;;;13.77;4.88;;;;;;;;;;5216488;28;20052;-84
2022/01/06 15:09:24;;;;;;;10.80;4.53;;;;;;;;;;5248712;28;20048;-84
2022/01/06 15:11:57;;;;;;;9.07;4.80;;;;;;;;;;5238235;28;20302;-84
2022/01/06 15:14:30;;;;;;;13.23;5.67;;;;;;;;;;5240164;27;20503;-84
2022/01/06 15:17:03;;;;;;;17.93;5.63;;;;;;;;;;5240156;28;20044;-83
2022/01/06 15:19:36;;;;;;;10.03;5.60;;;;;;;;;;5255011;27;20036;-83
2022/01/06 15:22:09;;;;;;;16.00;5.40;;;;;;;;;;5222873;28;20495;-84
2022/01/06 15:24:42;;;;;;;11.57;6.15;;;;;;;;;;5244978;28;20047;-85
2022/01/06 15:27:15;;;;;;;7.00;5.10;;;;;;;;;;5241995;28;20055;-85